sensor_id;sensor_type;location;lat;lon;timestamp;temperature;humidity
20839;DHT22;10580;51.092;6.828;2024-01-15T00:01:44;0.90;1.00
20839;DHT22;10580;51.092;6.828;2024-01-15T00:04:10;0.90;1.00
20839;DHT22;10580;51.092;6.828;2024-01-15T00:06:35;0.90;1.00
20839;DHT22;10580;51.092;6.828;2024-01-15T00:09:01;0.90;1.00
20839;DHT22;10580;51.092;6.828;2024-01-15T00:11:27;0.80;1.40
20839;DHT22;10580;51.092;6.828;2024-01-15T00:13:53;0.80;42.60
20839;DHT22;10580;51.092;6.828;2024-01-15T00:16:18;0.80;99.90
20839;DHT22;10580;51.092;6.828;2024-01-15T00:18:44;0.80;99.90
20839;DHT22;10580;51.092;6.828;2024-01-15T00:21:10;0.80;99.90
20839;DHT22;10580;51.092;6.828;2024-01-15T00:23:35;0.80;99.90
20839;DHT22;10580;51.092;6.828;2024-01-15T00:26:01;0.80;99.90
20839;DHT22;10580;51.092;6.828;2024-01-15T00:28:26;0.80;99.90
20839;DHT22;10580;51.092;6.828;2024-01-15T00:30:52;0.80;1.00
20839;DHT22;10580;51.092;6.828;2024-01-15T00:33:18;0.70;1.00
20839;DHT22;10580;51.092;6.828;2024-01-15T00:35:43;0.70;1.00
20839;DHT22;10580;51.092;6.828;2024-01-15T00:38:09;0.70;1.00
20839;DHT22;10580;51.092;6.828;2024-01-15T00:40:34;0.70;1.00
20839;DHT22;10580;51.092;6.828;2024-01-15T00:43:00;0.70;1.00
20839;DHT22;10580;51.092;6.828;2024-01-15T00:45:25;0.70;1.00
20839;DHT22;10580;51.092;6.828;2024-01-15T00:47:51;0.70;1.00
20839;DHT22;10580;51.092;6.828;2024-01-15T00:50:16;0.70;1.00
20839;DHT22;10580;51.092;6.828;2024-01-15T00:52:42;0.70;1.00
20839;DHT22;10580;51.092;6.828;2024-01-15T00:55:08;0.70;1.00
20839;DHT22;10580;51.092;6.828;2024-01-15T00:57:34;0.70;1.00
20839;DHT22;10580;51.092;6.828;2024-01-15T00:59:59;0.70;1.00
20839;DHT22;10580;51.092;6.828;2024-01-15T01:02:26;0.80;1.00
20839;DHT22;10580;51.092;6.828;2024-01-15T01:04:51;0.80;1.00
20839;DHT22;10580;51.092;6.828;2024-01-15T01:07:17;0.80;1.00
20839;DHT22;10580;51.092;6.828;2024-01-15T01:09:42;0.80;1.00
20839;DHT22;10580;51.092;6.828;2024-01-15T01:12:09;0.80;1.00
20839;DHT22;10580;51.092;6.828;2024-01-15T01:14:35;0.80;1.00
20839;DHT22;10580;51.092;6.828;2024-01-15T01:17:00;0.80;1.00
20839;DHT22;10580;51.092;6.828;2024-01-15T01:19:26;0.80;1.00
20839;DHT22;10580;51.092;6.828;2024-01-15T01:21:51;0.80;1.00
20839;DHT22;10580;51.092;6.828;2024-01-15T01:24:17;0.90;1.00
20839;DHT22;10580;51.092;6.828;2024-01-15T01:34:00;0.80;1.00
20839;DHT22;10580;51.092;6.828;2024-01-15T01:36:45;0.90;1.00
20839;DHT22;10580;51.092;6.828;2024-01-15T01:39:10;0.90;1.00
20839;DHT22;10580;51.092;6.828;2024-01-15T01:41:38;0.90;1.00
20839;DHT22;10580;51.092;6.828;2024-01-15T01:44:04;0.90;1.00
20839;DHT22;10580;51.092;6.828;2024-01-15T01:46:30;0.90;1.00
20839;DHT22;10580;51.092;6.828;2024-01-15T01:48:56;0.90;1.00
20839;DHT22;10580;51.092;6.828;2024-01-15T01:51:23;1.00;1.00
20839;DHT22;10580;51.092;6.828;2024-01-15T01:53:50;1.00;1.00
20839;DHT22;10580;51.092;6.828;2024-01-15T01:56:17;1.00;1.00
20839;DHT22;10580;51.092;6.828;2024-01-15T01:58:44;1.00;1.00
20839;DHT22;10580;51.092;6.828;2024-01-15T02:01:11;1.00;1.00
20839;DHT22;10580;51.092;6.828;2024-01-15T02:03:38;1.00;1.00
20839;DHT22;10580;51.092;6.828;2024-01-15T02:06:05;1.10;1.00
20839;DHT22;10580;51.092;6.828;2024-01-15T02:08:30;1.10;1.00
20839;DHT22;10580;51.092;6.828;2024-01-15T02:10:56;1.10;1.00
20839;DHT22;10580;51.092;6.828;2024-01-15T02:13:22;1.10;1.00
20839;DHT22;10580;51.092;6.828;2024-01-15T02:15:47;1.10;1.00
20839;DHT22;10580;51.092;6.828;2024-01-15T02:18:13;1.10;1.00
20839;DHT22;10580;51.092;6.828;2024-01-15T02:20:38;1.10;1.00
20839;DHT22;10580;51.092;6.828;2024-01-15T02:23:09;1.10;1.00
20839;DHT22;10580;51.092;6.828;2024-01-15T02:25:41;1.10;1.00
20839;DHT22;10580;51.092;6.828;2024-01-15T02:28:12;1.10;1.00
20839;DHT22;10580;51.092;6.828;2024-01-15T02:30:39;1.10;1.00
20839;DHT22;10580;51.092;6.828;2024-01-15T02:33:06;1.20;99.90
20839;DHT22;10580;51.092;6.828;2024-01-15T02:35:32;1.20;99.90
20839;DHT22;10580;51.092;6.828;2024-01-15T02:37:58;1.20;99.90
20839;DHT22;10580;51.092;6.828;2024-01-15T02:40:23;1.20;99.90
20839;DHT22;10580;51.092;6.828;2024-01-15T02:42:49;1.20;99.90
20839;DHT22;10580;51.092;6.828;2024-01-15T02:45:14;1.20;99.90
20839;DHT22;10580;51.092;6.828;2024-01-15T02:47:40;1.20;99.90
20839;DHT22;10580;51.092;6.828;2024-01-15T02:50:06;1.30;99.90
20839;DHT22;10580;51.092;6.828;2024-01-15T02:52:31;1.30;99.90
20839;DHT22;10580;51.092;6.828;2024-01-15T02:54:57;1.20;99.90
20839;DHT22;10580;51.092;6.828;2024-01-15T02:57:23;1.30;99.90
20839;DHT22;10580;51.092;6.828;2024-01-15T02:59:48;1.30;99.90
20839;DHT22;10580;51.092;6.828;2024-01-15T03:02:14;1.20;99.90
20839;DHT22;10580;51.092;6.828;2024-01-15T03:04:43;1.20;91.90
20839;DHT22;10580;51.092;6.828;2024-01-15T03:07:09;1.30;51.30
20839;DHT22;10580;51.092;6.828;2024-01-15T03:09:35;1.20;1.00
20839;DHT22;10580;51.092;6.828;2024-01-15T03:12:00;1.30;1.00
20839;DHT22;10580;51.092;6.828;2024-01-15T03:14:26;1.30;1.00
20839;DHT22;10580;51.092;6.828;2024-01-15T03:16:52;1.30;1.00
20839;DHT22;10580;51.092;6.828;2024-01-15T03:19:18;1.30;1.00
20839;DHT22;10580;51.092;6.828;2024-01-15T03:21:43;1.30;1.00
20839;DHT22;10580;51.092;6.828;2024-01-15T03:24:09;1.20;1.00
20839;DHT22;10580;51.092;6.828;2024-01-15T03:26:34;1.20;1.00
20839;DHT22;10580;51.092;6.828;2024-01-15T03:29:00;1.20;1.00
20839;DHT22;10580;51.092;6.828;2024-01-15T03:31:26;1.20;1.00
20839;DHT22;10580;51.092;6.828;2024-01-15T03:33:51;1.30;1.00
20839;DHT22;10580;51.092;6.828;2024-01-15T03:36:17;1.30;1.00
20839;DHT22;10580;51.092;6.828;2024-01-15T03:38:42;1.30;1.00
20839;DHT22;10580;51.092;6.828;2024-01-15T03:41:08;1.30;1.00
20839;DHT22;10580;51.092;6.828;2024-01-15T03:43:33;1.30;1.00
20839;DHT22;10580;51.092;6.828;2024-01-15T03:45:59;1.30;1.00
20839;DHT22;10580;51.092;6.828;2024-01-15T03:48:25;1.30;1.00
20839;DHT22;10580;51.092;6.828;2024-01-15T03:50:50;1.30;1.00
20839;DHT22;10580;51.092;6.828;2024-01-15T03:53:16;1.30;1.00
20839;DHT22;10580;51.092;6.828;2024-01-15T03:55:42;1.30;1.00
20839;DHT22;10580;51.092;6.828;2024-01-15T03:58:08;1.30;1.00
20839;DHT22;10580;51.092;6.828;2024-01-15T04:00:34;1.30;1.00
20839;DHT22;10580;51.092;6.828;2024-01-15T04:02:59;1.30;1.00
20839;DHT22;10580;51.092;6.828;2024-01-15T04:05:25;1.30;1.00
20839;DHT22;10580;51.092;6.828;2024-01-15T04:07:51;1.30;1.00
20839;DHT22;10580;51.092;6.828;2024-01-15T04:10:16;1.30;1.00
20839;DHT22;10580;51.092;6.828;2024-01-15T04:12:42;1.30;1.00
20839;DHT22;10580;51.092;6.828;2024-01-15T04:15:07;1.30;1.00
20839;DHT22;10580;51.092;6.828;2024-01-15T04:17:33;1.40;1.00
20839;DHT22;10580;51.092;6.828;2024-01-15T04:19:59;1.30;1.00
20839;DHT22;10580;51.092;6.828;2024-01-15T04:22:26;1.30;1.00
20839;DHT22;10580;51.092;6.828;2024-01-15T04:24:52;1.30;1.00
20839;DHT22;10580;51.092;6.828;2024-01-15T04:27:17;1.40;1.00
20839;DHT22;10580;51.092;6.828;2024-01-15T04:29:43;1.40;1.00
20839;DHT22;10580;51.092;6.828;2024-01-15T04:32:10;1.40;1.00
20839;DHT22;10580;51.092;6.828;2024-01-15T04:34:35;1.30;1.00
20839;DHT22;10580;51.092;6.828;2024-01-15T04:37:01;1.40;1.00
20839;DHT22;10580;51.092;6.828;2024-01-15T04:39:27;1.40;1.00
20839;DHT22;10580;51.092;6.828;2024-01-15T04:41:52;1.30;1.00
20839;DHT22;10580;51.092;6.828;2024-01-15T04:44:18;1.30;1.00
20839;DHT22;10580;51.092;6.828;2024-01-15T04:46:44;1.30;1.00
20839;DHT22;10580;51.092;6.828;2024-01-15T04:49:11;1.30;1.00
20839;DHT22;10580;51.092;6.828;2024-01-15T04:51:36;1.40;1.00
20839;DHT22;10580;51.092;6.828;2024-01-15T04:54:02;1.30;1.00
20839;DHT22;10580;51.092;6.828;2024-01-15T04:56:27;1.40;1.00
20839;DHT22;10580;51.092;6.828;2024-01-15T04:58:53;1.40;99.90
20839;DHT22;10580;51.092;6.828;2024-01-15T05:01:18;1.40;1.00
20839;DHT22;10580;51.092;6.828;2024-01-15T05:03:44;1.40;1.00
20839;DHT22;10580;51.092;6.828;2024-01-15T05:06:10;1.50;99.90
20839;DHT22;10580;51.092;6.828;2024-01-15T05:08:35;1.40;99.90
20839;DHT22;10580;51.092;6.828;2024-01-15T05:11:01;1.40;99.90
20839;DHT22;10580;51.092;6.828;2024-01-15T05:13:26;1.50;99.90
20839;DHT22;10580;51.092;6.828;2024-01-15T05:15:52;1.50;99.90
20839;DHT22;10580;51.092;6.828;2024-01-15T05:18:18;1.40;99.90
20839;DHT22;10580;51.092;6.828;2024-01-15T05:20:43;1.40;99.90
20839;DHT22;10580;51.092;6.828;2024-01-15T05:23:09;1.40;99.90
20839;DHT22;10580;51.092;6.828;2024-01-15T05:25:35;1.40;99.90
20839;DHT22;10580;51.092;6.828;2024-01-15T05:28:01;1.40;99.90
20839;DHT22;10580;51.092;6.828;2024-01-15T05:30:26;1.40;99.90
20839;DHT22;10580;51.092;6.828;2024-01-15T05:32:52;1.40;99.90
20839;DHT22;10580;51.092;6.828;2024-01-15T05:35:18;1.40;99.90
20839;DHT22;10580;51.092;6.828;2024-01-15T05:37:44;1.40;99.90
20839;DHT22;10580;51.092;6.828;2024-01-15T05:40:11;1.40;99.90
20839;DHT22;10580;51.092;6.828;2024-01-15T05:42:38;1.40;99.90
20839;DHT22;10580;51.092;6.828;2024-01-15T05:45:04;1.40;99.90
20839;DHT22;10580;51.092;6.828;2024-01-15T05:47:30;1.40;99.90
20839;DHT22;10580;51.092;6.828;2024-01-15T05:49:56;1.40;99.90
20839;DHT22;10580;51.092;6.828;2024-01-15T05:52:22;1.40;99.90
20839;DHT22;10580;51.092;6.828;2024-01-15T05:54:49;1.40;99.90
20839;DHT22;10580;51.092;6.828;2024-01-15T05:57:14;1.40;99.90
20839;DHT22;10580;51.092;6.828;2024-01-15T05:59:40;1.40;99.90
20839;DHT22;10580;51.092;6.828;2024-01-15T06:02:05;1.40;99.90
20839;DHT22;10580;51.092;6.828;2024-01-15T06:04:31;1.40;99.90
20839;DHT22;10580;51.092;6.828;2024-01-15T06:06:56;1.40;99.90
20839;DHT22;10580;51.092;6.828;2024-01-15T06:09:22;1.40;99.90
20839;DHT22;10580;51.092;6.828;2024-01-15T06:11:47;1.40;99.90
20839;DHT22;10580;51.092;6.828;2024-01-15T06:14:13;1.50;99.90
20839;DHT22;10580;51.092;6.828;2024-01-15T06:16:39;1.50;99.90
20839;DHT22;10580;51.092;6.828;2024-01-15T06:19:04;1.50;99.90
20839;DHT22;10580;51.092;6.828;2024-01-15T06:21:30;1.50;99.90
20839;DHT22;10580;51.092;6.828;2024-01-15T06:23:55;1.50;97.40
20839;DHT22;10580;51.092;6.828;2024-01-15T06:26:22;1.60;32.10
20839;DHT22;10580;51.092;6.828;2024-01-15T06:28:48;1.60;2.20
20839;DHT22;10580;51.092;6.828;2024-01-15T06:31:13;1.60;1.00
20839;DHT22;10580;51.092;6.828;2024-01-15T06:33:39;1.60;5.10
20839;DHT22;10580;51.092;6.828;2024-01-15T06:36:05;1.60;1.00
20839;DHT22;10580;51.092;6.828;2024-01-15T06:38:31;1.60;16.10
20839;DHT22;10580;51.092;6.828;2024-01-15T06:40:57;1.60;97.00
20839;DHT22;10580;51.092;6.828;2024-01-15T06:43:22;1.50;99.90
20839;DHT22;10580;51.092;6.828;2024-01-15T06:45:48;1.50;99.90
20839;DHT22;10580;51.092;6.828;2024-01-15T06:48:14;1.50;99.90
20839;DHT22;10580;51.092;6.828;2024-01-15T06:50:42;1.50;99.90
20839;DHT22;10580;51.092;6.828;2024-01-15T06:53:07;1.50;99.90
20839;DHT22;10580;51.092;6.828;2024-01-15T06:55:33;1.40;1.00
20839;DHT22;10580;51.092;6.828;2024-01-15T06:57:58;1.40;1.00
20839;DHT22;10580;51.092;6.828;2024-01-15T07:00:24;1.50;1.00
20839;DHT22;10580;51.092;6.828;2024-01-15T07:02:51;1.40;1.00
20839;DHT22;10580;51.092;6.828;2024-01-15T07:05:17;1.40;1.00
20839;DHT22;10580;51.092;6.828;2024-01-15T07:07:43;1.50;1.00
20839;DHT22;10580;51.092;6.828;2024-01-15T07:10:08;1.40;1.00
20839;DHT22;10580;51.092;6.828;2024-01-15T07:12:34;1.40;1.00
20839;DHT22;10580;51.092;6.828;2024-01-15T07:15:00;1.50;1.00
20839;DHT22;10580;51.092;6.828;2024-01-15T07:17:25;1.50;1.00
20839;DHT22;10580;51.092;6.828;2024-01-15T07:19:51;1.50;1.00
20839;DHT22;10580;51.092;6.828;2024-01-15T07:22:16;1.50;1.00
20839;DHT22;10580;51.092;6.828;2024-01-15T07:24:43;1.50;1.00
20839;DHT22;10580;51.092;6.828;2024-01-15T07:27:09;1.50;99.90
20839;DHT22;10580;51.092;6.828;2024-01-15T07:29:35;1.50;99.90
20839;DHT22;10580;51.092;6.828;2024-01-15T07:32:04;1.60;99.90
20839;DHT22;10580;51.092;6.828;2024-01-15T07:34:29;1.50;99.90
20839;DHT22;10580;51.092;6.828;2024-01-15T07:36:56;1.60;99.90
20839;DHT22;10580;51.092;6.828;2024-01-15T07:39:22;1.60;99.90
20839;DHT22;10580;51.092;6.828;2024-01-15T07:41:49;1.60;39.10
20839;DHT22;10580;51.092;6.828;2024-01-15T07:44:14;1.60;3.10
20839;DHT22;10580;51.092;6.828;2024-01-15T07:46:43;1.60;5.80
20839;DHT22;10580;51.092;6.828;2024-01-15T07:49:09;1.60;1.00
20839;DHT22;10580;51.092;6.828;2024-01-15T07:51:34;1.60;1.00
20839;DHT22;10580;51.092;6.828;2024-01-15T07:54:00;1.60;1.00
20839;DHT22;10580;51.092;6.828;2024-01-15T07:56:25;1.60;1.00
20839;DHT22;10580;51.092;6.828;2024-01-15T07:58:52;1.60;1.00
20839;DHT22;10580;51.092;6.828;2024-01-15T08:01:18;1.60;1.00
20839;DHT22;10580;51.092;6.828;2024-01-15T08:03:43;1.60;1.00
20839;DHT22;10580;51.092;6.828;2024-01-15T08:06:09;1.60;1.00
20839;DHT22;10580;51.092;6.828;2024-01-15T08:08:35;1.60;1.00
20839;DHT22;10580;51.092;6.828;2024-01-15T08:11:01;1.60;1.00
20839;DHT22;10580;51.092;6.828;2024-01-15T08:13:26;1.70;1.00
20839;DHT22;10580;51.092;6.828;2024-01-15T08:15:53;1.60;1.00
20839;DHT22;10580;51.092;6.828;2024-01-15T08:18:18;1.60;1.00
20839;DHT22;10580;51.092;6.828;2024-01-15T08:20:45;1.60;1.00
20839;DHT22;10580;51.092;6.828;2024-01-15T08:23:11;1.60;1.00
20839;DHT22;10580;51.092;6.828;2024-01-15T08:25:37;1.70;1.00
20839;DHT22;10580;51.092;6.828;2024-01-15T08:28:02;1.70;1.00
20839;DHT22;10580;51.092;6.828;2024-01-15T08:30:28;1.70;1.00
20839;DHT22;10580;51.092;6.828;2024-01-15T08:32:54;1.60;1.00
20839;DHT22;10580;51.092;6.828;2024-01-15T08:35:20;1.60;1.00
20839;DHT22;10580;51.092;6.828;2024-01-15T08:37:49;1.60;1.00
20839;DHT22;10580;51.092;6.828;2024-01-15T08:40:15;1.50;32.10
20839;DHT22;10580;51.092;6.828;2024-01-15T08:42:41;1.40;99.90
20839;DHT22;10580;51.092;6.828;2024-01-15T08:45:07;1.30;1.00
20839;DHT22;10580;51.092;6.828;2024-01-15T08:47:32;1.30;1.00
20839;DHT22;10580;51.092;6.828;2024-01-15T08:49:58;1.30;1.00
20839;DHT22;10580;51.092;6.828;2024-01-15T08:52:24;1.20;1.00
20839;DHT22;10580;51.092;6.828;2024-01-15T08:54:50;1.20;1.00
20839;DHT22;10580;51.092;6.828;2024-01-15T08:57:16;1.20;1.00
20839;DHT22;10580;51.092;6.828;2024-01-15T08:59:41;1.20;1.00
20839;DHT22;10580;51.092;6.828;2024-01-15T09:02:07;1.10;1.00
20839;DHT22;10580;51.092;6.828;2024-01-15T09:04:33;1.10;1.00
20839;DHT22;10580;51.092;6.828;2024-01-15T09:06:58;1.10;1.00
20839;DHT22;10580;51.092;6.828;2024-01-15T09:09:24;1.10;1.00
20839;DHT22;10580;51.092;6.828;2024-01-15T09:11:51;1.10;23.00
20839;DHT22;10580;51.092;6.828;2024-01-15T09:14:16;1.10;82.00
20839;DHT22;10580;51.092;6.828;2024-01-15T09:16:42;1.10;99.90
20839;DHT22;10580;51.092;6.828;2024-01-15T09:19:08;1.10;99.90
20839;DHT22;10580;51.092;6.828;2024-01-15T09:21:33;1.20;99.90
20839;DHT22;10580;51.092;6.828;2024-01-15T09:23:59;1.20;99.90
20839;DHT22;10580;51.092;6.828;2024-01-15T09:26:24;1.20;99.90
20839;DHT22;10580;51.092;6.828;2024-01-15T09:28:51;1.20;99.90
20839;DHT22;10580;51.092;6.828;2024-01-15T09:31:17;1.20;99.90
20839;DHT22;10580;51.092;6.828;2024-01-15T09:33:43;1.20;99.90
20839;DHT22;10580;51.092;6.828;2024-01-15T09:36:09;1.20;99.90
20839;DHT22;10580;51.092;6.828;2024-01-15T09:38:35;1.20;99.90
20839;DHT22;10580;51.092;6.828;2024-01-15T09:41:00;1.20;99.90
20839;DHT22;10580;51.092;6.828;2024-01-15T09:43:26;1.20;99.90
20839;DHT22;10580;51.092;6.828;2024-01-15T09:45:53;1.10;99.90
20839;DHT22;10580;51.092;6.828;2024-01-15T09:48:19;1.10;99.90
20839;DHT22;10580;51.092;6.828;2024-01-15T09:50:45;1.10;99.90
20839;DHT22;10580;51.092;6.828;2024-01-15T09:53:11;1.10;99.90
20839;DHT22;10580;51.092;6.828;2024-01-15T09:55:37;1.20;99.90
20839;DHT22;10580;51.092;6.828;2024-01-15T09:58:04;1.20;99.90
20839;DHT22;10580;51.092;6.828;2024-01-15T10:00:29;1.30;99.90
20839;DHT22;10580;51.092;6.828;2024-01-15T10:02:56;1.30;99.90
20839;DHT22;10580;51.092;6.828;2024-01-15T10:05:22;1.30;99.90
20839;DHT22;10580;51.092;6.828;2024-01-15T10:07:48;1.30;99.90
20839;DHT22;10580;51.092;6.828;2024-01-15T10:10:15;1.40;99.90
20839;DHT22;10580;51.092;6.828;2024-01-15T10:12:42;1.40;99.90
20839;DHT22;10580;51.092;6.828;2024-01-15T10:15:10;1.40;99.90
20839;DHT22;10580;51.092;6.828;2024-01-15T10:17:38;1.30;99.90
20839;DHT22;10580;51.092;6.828;2024-01-15T10:20:09;1.30;99.90
20839;DHT22;10580;51.092;6.828;2024-01-15T10:22:35;1.30;99.90
20839;DHT22;10580;51.092;6.828;2024-01-15T10:25:04;1.30;99.90
20839;DHT22;10580;51.092;6.828;2024-01-15T10:27:30;1.30;99.90
20839;DHT22;10580;51.092;6.828;2024-01-15T10:29:59;1.30;99.90
20839;DHT22;10580;51.092;6.828;2024-01-15T10:32:26;1.30;99.90
20839;DHT22;10580;51.092;6.828;2024-01-15T10:34:52;1.40;99.90
20839;DHT22;10580;51.092;6.828;2024-01-15T10:37:18;1.40;99.90
20839;DHT22;10580;51.092;6.828;2024-01-15T10:39:46;1.30;99.90
20839;DHT22;10580;51.092;6.828;2024-01-15T10:42:12;1.40;99.90
20839;DHT22;10580;51.092;6.828;2024-01-15T10:44:37;1.40;99.90
20839;DHT22;10580;51.092;6.828;2024-01-15T10:47:04;1.40;99.90
20839;DHT22;10580;51.092;6.828;2024-01-15T10:49:30;1.40;99.90
20839;DHT22;10580;51.092;6.828;2024-01-15T10:51:56;1.40;99.90
20839;DHT22;10580;51.092;6.828;2024-01-15T10:54:23;1.50;99.90
20839;DHT22;10580;51.092;6.828;2024-01-15T10:56:50;1.50;99.90
20839;DHT22;10580;51.092;6.828;2024-01-15T10:59:16;1.60;99.90
20839;DHT22;10580;51.092;6.828;2024-01-15T11:01:46;1.60;99.90
20839;DHT22;10580;51.092;6.828;2024-01-15T11:04:12;1.70;99.90
20839;DHT22;10580;51.092;6.828;2024-01-15T11:06:43;1.60;35.90
20839;DHT22;10580;51.092;6.828;2024-01-15T11:09:09;1.60;6.10
20839;DHT22;10580;51.092;6.828;2024-01-15T11:11:36;1.70;1.00
20839;DHT22;10580;51.092;6.828;2024-01-15T11:14:02;1.70;1.00
20839;DHT22;10580;51.092;6.828;2024-01-15T11:16:54;1.70;1.00
20839;DHT22;10580;51.092;6.828;2024-01-15T11:19:22;1.80;1.00
20839;DHT22;10580;51.092;6.828;2024-01-15T11:21:47;1.80;1.00
20839;DHT22;10580;51.092;6.828;2024-01-15T11:24:33;1.90;99.90
20839;DHT22;10580;51.092;6.828;2024-01-15T11:27:00;1.90;99.90
20839;DHT22;10580;51.092;6.828;2024-01-15T11:29:34;1.90;99.90
20839;DHT22;10580;51.092;6.828;2024-01-15T11:34:55;1.80;99.90
20839;DHT22;10580;51.092;6.828;2024-01-15T11:37:25;1.90;99.90
20839;DHT22;10580;51.092;6.828;2024-01-15T11:39:52;1.90;99.90
20839;DHT22;10580;51.092;6.828;2024-01-15T11:42:20;1.90;1.00
20839;DHT22;10580;51.092;6.828;2024-01-15T11:44:46;2.00;1.00
20839;DHT22;10580;51.092;6.828;2024-01-15T11:47:12;2.00;1.00
20839;DHT22;10580;51.092;6.828;2024-01-15T11:52:18;2.00;1.00
20839;DHT22;10580;51.092;6.828;2024-01-15T11:55:14;2.10;1.00
20839;DHT22;10580;51.092;6.828;2024-01-15T12:00:11;2.30;99.90
20839;DHT22;10580;51.092;6.828;2024-01-15T12:02:38;2.40;99.90
20839;DHT22;10580;51.092;6.828;2024-01-15T12:05:05;2.70;99.90
20839;DHT22;10580;51.092;6.828;2024-01-15T12:07:32;3.10;99.90
20839;DHT22;10580;51.092;6.828;2024-01-15T12:09:57;3.30;99.90
20839;DHT22;10580;51.092;6.828;2024-01-15T12:12:57;3.40;1.00
20839;DHT22;10580;51.092;6.828;2024-01-15T12:15:24;3.40;1.00
20839;DHT22;10580;51.092;6.828;2024-01-15T12:17:49;3.90;1.00
20839;DHT22;10580;51.092;6.828;2024-01-15T12:20:16;4.10;1.00
20839;DHT22;10580;51.092;6.828;2024-01-15T12:22:42;3.50;99.90
20839;DHT22;10580;51.092;6.828;2024-01-15T12:25:09;3.30;1.00
20839;DHT22;10580;51.092;6.828;2024-01-15T12:27:34;3.10;1.00
20839;DHT22;10580;51.092;6.828;2024-01-15T12:30:00;2.90;1.00
20839;DHT22;10580;51.092;6.828;2024-01-15T12:32:26;2.80;99.90
20839;DHT22;10580;51.092;6.828;2024-01-15T12:34:51;2.70;99.90
20839;DHT22;10580;51.092;6.828;2024-01-15T12:37:20;2.50;99.90
20839;DHT22;10580;51.092;6.828;2024-01-15T12:39:47;2.50;99.90
20839;DHT22;10580;51.092;6.828;2024-01-15T12:42:16;2.50;1.00
20839;DHT22;10580;51.092;6.828;2024-01-15T12:44:44;2.40;1.00
20839;DHT22;10580;51.092;6.828;2024-01-15T12:47:10;2.30;1.00
20839;DHT22;10580;51.092;6.828;2024-01-15T12:49:37;2.30;1.00
20839;DHT22;10580;51.092;6.828;2024-01-15T12:52:03;2.20;1.00
20839;DHT22;10580;51.092;6.828;2024-01-15T12:54:28;2.20;1.00
20839;DHT22;10580;51.092;6.828;2024-01-15T12:56:54;2.30;1.00
20839;DHT22;10580;51.092;6.828;2024-01-15T12:59:20;2.20;1.00
20839;DHT22;10580;51.092;6.828;2024-01-15T13:01:46;2.30;1.00
20839;DHT22;10580;51.092;6.828;2024-01-15T13:04:20;2.40;1.00
20839;DHT22;10580;51.092;6.828;2024-01-15T13:06:46;2.30;1.00
20839;DHT22;10580;51.092;6.828;2024-01-15T13:09:11;2.30;1.00
20839;DHT22;10580;51.092;6.828;2024-01-15T13:11:37;2.30;1.00
20839;DHT22;10580;51.092;6.828;2024-01-15T13:14:03;2.40;1.00
20839;DHT22;10580;51.092;6.828;2024-01-15T13:16:28;2.40;1.00
20839;DHT22;10580;51.092;6.828;2024-01-15T13:18:55;2.40;1.00
20839;DHT22;10580;51.092;6.828;2024-01-15T13:21:21;2.40;1.00
20839;DHT22;10580;51.092;6.828;2024-01-15T13:23:47;2.50;1.00
20839;DHT22;10580;51.092;6.828;2024-01-15T13:26:13;2.40;99.90
20839;DHT22;10580;51.092;6.828;2024-01-15T13:28:38;2.40;1.00
20839;DHT22;10580;51.092;6.828;2024-01-15T13:31:06;2.40;1.00
20839;DHT22;10580;51.092;6.828;2024-01-15T13:33:35;2.40;1.00
20839;DHT22;10580;51.092;6.828;2024-01-15T13:36:03;2.30;1.00
20839;DHT22;10580;51.092;6.828;2024-01-15T13:38:33;2.40;1.00
20839;DHT22;10580;51.092;6.828;2024-01-15T13:41:02;2.40;1.00
20839;DHT22;10580;51.092;6.828;2024-01-15T13:43:31;2.30;1.00
20839;DHT22;10580;51.092;6.828;2024-01-15T13:45:57;2.30;1.00
20839;DHT22;10580;51.092;6.828;2024-01-15T13:48:25;2.30;1.00
20839;DHT22;10580;51.092;6.828;2024-01-15T13:50:53;2.30;1.00
20839;DHT22;10580;51.092;6.828;2024-01-15T13:53:27;2.20;1.00
20839;DHT22;10580;51.092;6.828;2024-01-15T13:55:53;2.20;1.00
20839;DHT22;10580;51.092;6.828;2024-01-15T13:58:19;2.10;1.00
20839;DHT22;10580;51.092;6.828;2024-01-15T14:00:46;2.10;42.00
20839;DHT22;10580;51.092;6.828;2024-01-15T14:03:12;2.10;99.90
20839;DHT22;10580;51.092;6.828;2024-01-15T14:05:38;2.00;99.90
20839;DHT22;10580;51.092;6.828;2024-01-15T14:08:04;2.00;99.90
20839;DHT22;10580;51.092;6.828;2024-01-15T14:10:29;1.90;99.90
20839;DHT22;10580;51.092;6.828;2024-01-15T14:12:55;1.90;99.90
20839;DHT22;10580;51.092;6.828;2024-01-15T14:15:20;1.90;99.90
20839;DHT22;10580;51.092;6.828;2024-01-15T14:17:47;1.90;99.90
20839;DHT22;10580;51.092;6.828;2024-01-15T14:20:12;1.90;99.90
20839;DHT22;10580;51.092;6.828;2024-01-15T14:22:38;1.90;99.90
20839;DHT22;10580;51.092;6.828;2024-01-15T14:25:04;1.90;1.00
20839;DHT22;10580;51.092;6.828;2024-01-15T14:27:30;2.00;99.90
20839;DHT22;10580;51.092;6.828;2024-01-15T14:29:55;2.00;99.90
20839;DHT22;10580;51.092;6.828;2024-01-15T14:32:21;2.00;99.90
20839;DHT22;10580;51.092;6.828;2024-01-15T14:34:47;2.00;99.90
20839;DHT22;10580;51.092;6.828;2024-01-15T14:37:13;2.10;99.90
20839;DHT22;10580;51.092;6.828;2024-01-15T14:39:39;2.10;95.50
20839;DHT22;10580;51.092;6.828;2024-01-15T14:42:04;2.00;1.00
20839;DHT22;10580;51.092;6.828;2024-01-15T14:44:30;2.10;31.70
20839;DHT22;10580;51.092;6.828;2024-01-15T14:46:58;2.10;1.00
20839;DHT22;10580;51.092;6.828;2024-01-15T14:49:24;2.00;1.00
20839;DHT22;10580;51.092;6.828;2024-01-15T14:51:50;2.00;1.00
20839;DHT22;10580;51.092;6.828;2024-01-15T14:54:16;2.00;1.00
20839;DHT22;10580;51.092;6.828;2024-01-15T14:56:42;2.00;1.00
20839;DHT22;10580;51.092;6.828;2024-01-15T14:59:08;2.00;1.00
20839;DHT22;10580;51.092;6.828;2024-01-15T15:01:34;1.90;1.00
20839;DHT22;10580;51.092;6.828;2024-01-15T15:04:00;1.80;1.00
20839;DHT22;10580;51.092;6.828;2024-01-15T15:06:26;1.90;52.10
20839;DHT22;10580;51.092;6.828;2024-01-15T15:08:53;1.90;99.90
20839;DHT22;10580;51.092;6.828;2024-01-15T15:11:20;1.90;99.90
20839;DHT22;10580;51.092;6.828;2024-01-15T15:13:48;1.80;99.90
20839;DHT22;10580;51.092;6.828;2024-01-15T15:16:14;1.80;99.90
20839;DHT22;10580;51.092;6.828;2024-01-15T15:18:40;1.80;99.90
20839;DHT22;10580;51.092;6.828;2024-01-15T15:21:08;1.80;99.90
20839;DHT22;10580;51.092;6.828;2024-01-15T15:23:33;1.80;99.90
20839;DHT22;10580;51.092;6.828;2024-01-15T15:25:59;1.90;99.90
20839;DHT22;10580;51.092;6.828;2024-01-15T15:28:25;1.90;99.90
20839;DHT22;10580;51.092;6.828;2024-01-15T15:30:50;1.80;99.90
20839;DHT22;10580;51.092;6.828;2024-01-15T15:33:16;1.60;99.90
20839;DHT22;10580;51.092;6.828;2024-01-15T15:35:43;1.40;1.00
20839;DHT22;10580;51.092;6.828;2024-01-15T15:38:09;1.40;1.00
20839;DHT22;10580;51.092;6.828;2024-01-15T15:40:34;1.30;1.00
20839;DHT22;10580;51.092;6.828;2024-01-15T15:43:00;1.30;1.00
20839;DHT22;10580;51.092;6.828;2024-01-15T15:45:26;1.30;99.90
20839;DHT22;10580;51.092;6.828;2024-01-15T15:47:52;1.20;99.90
20839;DHT22;10580;51.092;6.828;2024-01-15T15:50:17;1.20;99.90
20839;DHT22;10580;51.092;6.828;2024-01-15T15:52:43;1.20;99.90
20839;DHT22;10580;51.092;6.828;2024-01-15T15:55:08;1.20;1.00
20839;DHT22;10580;51.092;6.828;2024-01-15T15:57:34;1.10;1.00
20839;DHT22;10580;51.092;6.828;2024-01-15T16:00:00;1.10;1.00
20839;DHT22;10580;51.092;6.828;2024-01-15T16:02:26;1.10;1.00
20839;DHT22;10580;51.092;6.828;2024-01-15T16:04:51;1.00;1.00